sensor_id;sensor_type;location;lat;lon;timestamp;P1;durP1;ratioP1;P2;durP2;ratioP2
3189;SDS011;1606;51.946;10.558;2023-06-24T00:00:29;13.57;;;5.50;;
3189;SDS011;1606;51.946;10.558;2023-06-24T00:02:57;14.80;;;5.77;;
3189;SDS011;1606;51.946;10.558;2023-06-24T00:05:28;13.53;;;5.47;;
3189;SDS011;1606;51.946;10.558;2023-06-24T00:07:57;10.50;;;5.40;;
3189;SDS011;1606;51.946;10.558;2023-06-24T00:10:28;11.03;;;5.10;;
3189;SDS011;1606;51.946;10.558;2023-06-24T00:12:56;14.15;;;5.65;;
3189;SDS011;1606;51.946;10.558;2023-06-24T00:15:27;13.30;;;5.63;;
3189;SDS011;1606;51.946;10.558;2023-06-24T00:17:56;19.80;;;5.93;;
3189;SDS011;1606;51.946;10.558;2023-06-24T00:20:31;12.70;;;6.00;;
3189;SDS011;1606;51.946;10.558;2023-06-24T00:23:00;10.70;;;5.33;;
3189;SDS011;1606;51.946;10.558;2023-06-24T00:25:28;17.57;;;6.20;;
3189;SDS011;1606;51.946;10.558;2023-06-24T00:27:56;11.30;;;6.13;;
3189;SDS011;1606;51.946;10.558;2023-06-24T00:30:25;11.60;;;5.53;;
3189;SDS011;1606;51.946;10.558;2023-06-24T00:32:55;15.00;;;5.10;;
3189;SDS011;1606;51.946;10.558;2023-06-24T00:35:23;13.80;;;6.10;;
3189;SDS011;1606;51.946;10.558;2023-06-24T00:37:50;13.17;;;5.30;;
3189;SDS011;1606;51.946;10.558;2023-06-24T00:40:24;12.80;;;5.40;;
3189;SDS011;1606;51.946;10.558;2023-06-24T00:42:52;14.90;;;5.77;;
3189;SDS011;1606;51.946;10.558;2023-06-24T00:45:20;11.23;;;5.27;;
3189;SDS011;1606;51.946;10.558;2023-06-24T00:47:49;11.70;;;5.60;;
3189;SDS011;1606;51.946;10.558;2023-06-24T00:50:19;14.07;;;6.67;;
3189;SDS011;1606;51.946;10.558;2023-06-24T00:52:47;11.67;;;5.80;;
3189;SDS011;1606;51.946;10.558;2023-06-24T00:55:16;13.67;;;4.87;;
3189;SDS011;1606;51.946;10.558;2023-06-24T00:57:47;13.63;;;6.33;;
3189;SDS011;1606;51.946;10.558;2023-06-24T01:00:18;13.70;;;5.50;;
3189;SDS011;1606;51.946;10.558;2023-06-24T01:02:47;14.33;;;6.30;;
3189;SDS011;1606;51.946;10.558;2023-06-24T01:05:15;16.10;;;6.40;;
3189;SDS011;1606;51.946;10.558;2023-06-24T01:07:45;18.10;;;6.10;;
3189;SDS011;1606;51.946;10.558;2023-06-24T01:10:21;11.23;;;5.43;;
3189;SDS011;1606;51.946;10.558;2023-06-24T01:12:51;15.13;;;6.80;;
3189;SDS011;1606;51.946;10.558;2023-06-24T01:15:19;12.10;;;5.43;;
3189;SDS011;1606;51.946;10.558;2023-06-24T01:17:49;14.57;;;6.60;;
3189;SDS011;1606;51.946;10.558;2023-06-24T01:20:23;14.60;;;7.13;;
3189;SDS011;1606;51.946;10.558;2023-06-24T01:23:11;14.90;;;6.07;;
3189;SDS011;1606;51.946;10.558;2023-06-24T01:29:09;12.20;;;5.33;;
3189;SDS011;1606;51.946;10.558;2023-06-24T01:32:12;14.70;;;6.60;;
3189;SDS011;1606;51.946;10.558;2023-06-24T01:34:48;15.63;;;6.83;;
3189;SDS011;1606;51.946;10.558;2023-06-24T01:37:25;18.23;;;6.97;;
3189;SDS011;1606;51.946;10.558;2023-06-24T01:39:56;12.80;;;6.37;;
3189;SDS011;1606;51.946;10.558;2023-06-24T01:42:34;14.53;;;5.90;;
3189;SDS011;1606;51.946;10.558;2023-06-24T01:45:04;13.80;;;6.70;;
3189;SDS011;1606;51.946;10.558;2023-06-24T01:47:36;12.57;;;6.33;;
3189;SDS011;1606;51.946;10.558;2023-06-24T01:50:08;19.47;;;7.03;;
3189;SDS011;1606;51.946;10.558;2023-06-24T01:52:39;12.77;;;6.37;;
3189;SDS011;1606;51.946;10.558;2023-06-24T01:55:10;11.60;;;6.40;;
3189;SDS011;1606;51.946;10.558;2023-06-24T01:57:41;12.27;;;6.70;;
3189;SDS011;1606;51.946;10.558;2023-06-24T02:00:11;16.50;;;6.80;;
3189;SDS011;1606;51.946;10.558;2023-06-24T02:02:41;13.57;;;6.30;;
3189;SDS011;1606;51.946;10.558;2023-06-24T02:05:10;17.37;;;8.23;;
3189;SDS011;1606;51.946;10.558;2023-06-24T02:07:40;17.13;;;7.40;;
3189;SDS011;1606;51.946;10.558;2023-06-24T02:10:10;11.00;;;6.13;;
3189;SDS011;1606;51.946;10.558;2023-06-24T02:12:39;14.03;;;7.13;;
3189;SDS011;1606;51.946;10.558;2023-06-24T02:15:08;15.77;;;7.07;;
3189;SDS011;1606;51.946;10.558;2023-06-24T02:17:37;20.33;;;8.53;;
3189;SDS011;1606;51.946;10.558;2023-06-24T02:20:08;14.53;;;6.83;;
3189;SDS011;1606;51.946;10.558;2023-06-24T02:22:37;15.47;;;6.60;;
3189;SDS011;1606;51.946;10.558;2023-06-24T02:25:07;13.43;;;7.20;;
3189;SDS011;1606;51.946;10.558;2023-06-24T02:27:35;16.37;;;7.27;;
3189;SDS011;1606;51.946;10.558;2023-06-24T02:30:05;18.90;;;6.50;;
3189;SDS011;1606;51.946;10.558;2023-06-24T02:32:35;15.57;;;7.20;;
3189;SDS011;1606;51.946;10.558;2023-06-24T02:35:05;15.73;;;6.80;;
3189;SDS011;1606;51.946;10.558;2023-06-24T02:37:35;17.53;;;7.00;;
3189;SDS011;1606;51.946;10.558;2023-06-24T02:40:03;13.17;;;6.33;;
3189;SDS011;1606;51.946;10.558;2023-06-24T02:42:33;12.60;;;6.93;;
3189;SDS011;1606;51.946;10.558;2023-06-24T02:45:01;11.83;;;5.70;;
3189;SDS011;1606;51.946;10.558;2023-06-24T02:47:30;11.93;;;6.30;;
3189;SDS011;1606;51.946;10.558;2023-06-24T02:49:59;15.27;;;7.37;;
3189;SDS011;1606;51.946;10.558;2023-06-24T02:52:29;15.33;;;6.63;;
3189;SDS011;1606;51.946;10.558;2023-06-24T02:54:58;14.03;;;7.00;;
3189;SDS011;1606;51.946;10.558;2023-06-24T02:57:26;13.40;;;7.03;;
3189;SDS011;1606;51.946;10.558;2023-06-24T02:59:55;13.80;;;6.90;;
3189;SDS011;1606;51.946;10.558;2023-06-24T03:02:23;15.80;;;7.43;;
3189;SDS011;1606;51.946;10.558;2023-06-24T03:04:51;11.93;;;6.47;;
3189;SDS011;1606;51.946;10.558;2023-06-24T03:07:19;17.13;;;7.20;;
3189;SDS011;1606;51.946;10.558;2023-06-24T03:09:48;16.73;;;6.83;;
3189;SDS011;1606;51.946;10.558;2023-06-24T03:12:17;17.80;;;6.00;;
3189;SDS011;1606;51.946;10.558;2023-06-24T03:14:45;12.87;;;6.80;;
3189;SDS011;1606;51.946;10.558;2023-06-24T03:17:13;15.17;;;7.40;;
3189;SDS011;1606;51.946;10.558;2023-06-24T03:19:41;14.83;;;6.80;;
3189;SDS011;1606;51.946;10.558;2023-06-24T03:22:10;11.40;;;7.00;;
3189;SDS011;1606;51.946;10.558;2023-06-24T03:24:37;10.77;;;5.77;;
3189;SDS011;1606;51.946;10.558;2023-06-24T03:27:05;12.83;;;6.30;;
3189;SDS011;1606;51.946;10.558;2023-06-24T03:29:34;18.03;;;6.93;;
3189;SDS011;1606;51.946;10.558;2023-06-24T03:32:02;13.63;;;7.33;;
3189;SDS011;1606;51.946;10.558;2023-06-24T03:34:31;12.13;;;6.33;;
3189;SDS011;1606;51.946;10.558;2023-06-24T03:36:59;14.13;;;6.90;;
3189;SDS011;1606;51.946;10.558;2023-06-24T03:39:27;12.47;;;5.77;;
3189;SDS011;1606;51.946;10.558;2023-06-24T03:41:55;17.97;;;6.20;;
3189;SDS011;1606;51.946;10.558;2023-06-24T03:44:23;13.13;;;6.27;;
3189;SDS011;1606;51.946;10.558;2023-06-24T03:46:52;11.80;;;5.90;;
3189;SDS011;1606;51.946;10.558;2023-06-24T03:49:20;12.70;;;6.17;;
3189;SDS011;1606;51.946;10.558;2023-06-24T03:51:47;13.40;;;6.33;;
3189;SDS011;1606;51.946;10.558;2023-06-24T03:54:15;17.37;;;7.07;;
3189;SDS011;1606;51.946;10.558;2023-06-24T03:56:43;13.43;;;6.80;;
3189;SDS011;1606;51.946;10.558;2023-06-24T03:59:11;12.73;;;6.80;;
3189;SDS011;1606;51.946;10.558;2023-06-24T04:01:40;12.53;;;6.30;;
3189;SDS011;1606;51.946;10.558;2023-06-24T04:04:09;11.60;;;6.17;;
3189;SDS011;1606;51.946;10.558;2023-06-24T04:06:36;14.17;;;7.30;;
3189;SDS011;1606;51.946;10.558;2023-06-24T04:09:04;12.80;;;7.30;;
3189;SDS011;1606;51.946;10.558;2023-06-24T04:11:32;13.77;;;6.60;;
3189;SDS011;1606;51.946;10.558;2023-06-24T04:14:00;12.73;;;5.73;;
3189;SDS011;1606;51.946;10.558;2023-06-24T04:16:28;12.83;;;6.83;;
3189;SDS011;1606;51.946;10.558;2023-06-24T04:18:56;13.77;;;7.30;;
3189;SDS011;1606;51.946;10.558;2023-06-24T04:21:25;12.40;;;8.20;;
3189;SDS011;1606;51.946;10.558;2023-06-24T04:23:53;12.27;;;5.90;;
3189;SDS011;1606;51.946;10.558;2023-06-24T04:26:20;11.87;;;6.60;;
3189;SDS011;1606;51.946;10.558;2023-06-24T04:28:48;14.30;;;7.03;;
3189;SDS011;1606;51.946;10.558;2023-06-24T04:31:16;16.90;;;7.63;;
3189;SDS011;1606;51.946;10.558;2023-06-24T04:33:44;16.07;;;7.57;;
3189;SDS011;1606;51.946;10.558;2023-06-24T04:36:12;13.67;;;8.20;;
3189;SDS011;1606;51.946;10.558;2023-06-24T04:38:41;14.23;;;7.57;;
3189;SDS011;1606;51.946;10.558;2023-06-24T04:41:09;15.20;;;8.20;;
3189;SDS011;1606;51.946;10.558;2023-06-24T04:43:37;15.13;;;8.47;;
3189;SDS011;1606;51.946;10.558;2023-06-24T04:46:04;13.93;;;6.97;;
3189;SDS011;1606;51.946;10.558;2023-06-24T04:48:32;12.40;;;7.30;;
3189;SDS011;1606;51.946;10.558;2023-06-24T04:51:00;15.10;;;8.80;;
3189;SDS011;1606;51.946;10.558;2023-06-24T04:53:28;13.83;;;7.77;;
3189;SDS011;1606;51.946;10.558;2023-06-24T04:55:57;17.40;;;8.13;;
3189;SDS011;1606;51.946;10.558;2023-06-24T04:58:25;16.10;;;8.67;;
3189;SDS011;1606;51.946;10.558;2023-06-24T05:00:53;14.33;;;8.77;;
3189;SDS011;1606;51.946;10.558;2023-06-24T05:03:25;13.80;;;8.43;;
3189;SDS011;1606;51.946;10.558;2023-06-24T05:05:53;13.87;;;7.77;;
3189;SDS011;1606;51.946;10.558;2023-06-24T05:08:20;18.20;;;9.87;;
3189;SDS011;1606;51.946;10.558;2023-06-24T05:10:48;18.37;;;10.43;;
3189;SDS011;1606;51.946;10.558;2023-06-24T05:13:17;17.67;;;8.13;;
3189;SDS011;1606;51.946;10.558;2023-06-24T05:15:45;17.20;;;9.43;;
3189;SDS011;1606;51.946;10.558;2023-06-24T05:18:13;15.73;;;8.70;;
3189;SDS011;1606;51.946;10.558;2023-06-24T05:20:40;13.83;;;9.00;;
3189;SDS011;1606;51.946;10.558;2023-06-24T05:23:08;15.47;;;8.87;;
3189;SDS011;1606;51.946;10.558;2023-06-24T05:25:36;13.63;;;8.77;;
3189;SDS011;1606;51.946;10.558;2023-06-24T05:28:04;16.75;;;9.27;;
3189;SDS011;1606;51.946;10.558;2023-06-24T05:30:33;16.40;;;10.57;;
3189;SDS011;1606;51.946;10.558;2023-06-24T05:33:01;16.73;;;9.87;;
3189;SDS011;1606;51.946;10.558;2023-06-24T05:35:29;15.10;;;8.90;;
3189;SDS011;1606;51.946;10.558;2023-06-24T05:37:58;15.20;;;10.40;;
3189;SDS011;1606;51.946;10.558;2023-06-24T05:40:26;19.30;;;10.33;;
3189;SDS011;1606;51.946;10.558;2023-06-24T05:42:54;17.10;;;10.13;;
3189;SDS011;1606;51.946;10.558;2023-06-24T05:45:21;14.40;;;9.70;;
3189;SDS011;1606;51.946;10.558;2023-06-24T05:47:50;12.77;;;7.67;;
3189;SDS011;1606;51.946;10.558;2023-06-24T05:50:18;19.73;;;9.23;;
3189;SDS011;1606;51.946;10.558;2023-06-24T05:52:46;14.07;;;9.00;;
3189;SDS011;1606;51.946;10.558;2023-06-24T05:55:14;18.03;;;9.03;;
3189;SDS011;1606;51.946;10.558;2023-06-24T05:57:42;13.70;;;8.83;;
3189;SDS011;1606;51.946;10.558;2023-06-24T06:00:10;17.17;;;9.50;;
3189;SDS011;1606;51.946;10.558;2023-06-24T06:02:38;16.63;;;8.77;;
3189;SDS011;1606;51.946;10.558;2023-06-24T06:05:08;13.23;;;8.10;;
3189;SDS011;1606;51.946;10.558;2023-06-24T06:07:36;13.17;;;7.87;;
3189;SDS011;1606;51.946;10.558;2023-06-24T06:10:06;15.90;;;8.93;;
3189;SDS011;1606;51.946;10.558;2023-06-24T06:12:35;13.83;;;9.10;;
3189;SDS011;1606;51.946;10.558;2023-06-24T06:15:03;20.80;;;8.90;;
3189;SDS011;1606;51.946;10.558;2023-06-24T06:17:31;13.53;;;7.60;;
3189;SDS011;1606;51.946;10.558;2023-06-24T06:19:59;16.73;;;7.80;;
3189;SDS011;1606;51.946;10.558;2023-06-24T06:22:28;16.17;;;7.70;;
3189;SDS011;1606;51.946;10.558;2023-06-24T06:24:58;14.70;;;8.20;;
3189;SDS011;1606;51.946;10.558;2023-06-24T06:27:26;12.30;;;8.10;;
3189;SDS011;1606;51.946;10.558;2023-06-24T06:29:54;11.43;;;7.00;;
3189;SDS011;1606;51.946;10.558;2023-06-24T06:32:21;12.07;;;7.20;;
3189;SDS011;1606;51.946;10.558;2023-06-24T06:34:49;13.70;;;7.63;;
3189;SDS011;1606;51.946;10.558;2023-06-24T06:37:17;15.65;;;7.05;;
3189;SDS011;1606;51.946;10.558;2023-06-24T06:39:46;19.10;;;7.80;;
3189;SDS011;1606;51.946;10.558;2023-06-24T06:42:14;11.87;;;7.13;;
3189;SDS011;1606;51.946;10.558;2023-06-24T06:44:45;11.97;;;6.10;;
3189;SDS011;1606;51.946;10.558;2023-06-24T06:47:13;11.83;;;6.53;;
3189;SDS011;1606;51.946;10.558;2023-06-24T06:49:41;13.50;;;6.83;;
3189;SDS011;1606;51.946;10.558;2023-06-24T06:52:09;11.70;;;5.30;;
3189;SDS011;1606;51.946;10.558;2023-06-24T06:54:36;11.70;;;6.20;;
3189;SDS011;1606;51.946;10.558;2023-06-24T06:57:06;11.60;;;5.80;;
3189;SDS011;1606;51.946;10.558;2023-06-24T06:59:34;13.07;;;6.33;;
3189;SDS011;1606;51.946;10.558;2023-06-24T07:02:02;10.87;;;5.40;;
3189;SDS011;1606;51.946;10.558;2023-06-24T07:04:30;10.80;;;5.20;;
3189;SDS011;1606;51.946;10.558;2023-06-24T07:06:58;10.17;;;4.90;;
3189;SDS011;1606;51.946;10.558;2023-06-24T07:09:27;12.65;;;6.00;;
3189;SDS011;1606;51.946;10.558;2023-06-24T07:11:54;14.70;;;6.63;;
3189;SDS011;1606;51.946;10.558;2023-06-24T07:14:23;8.87;;;4.77;;
3189;SDS011;1606;51.946;10.558;2023-06-24T07:16:51;9.70;;;4.83;;
3189;SDS011;1606;51.946;10.558;2023-06-24T07:19:19;10.17;;;5.00;;
3189;SDS011;1606;51.946;10.558;2023-06-24T07:21:47;13.80;;;4.53;;
3189;SDS011;1606;51.946;10.558;2023-06-24T07:24:15;9.87;;;4.87;;
3189;SDS011;1606;51.946;10.558;2023-06-24T07:26:42;11.30;;;6.13;;
3189;SDS011;1606;51.946;10.558;2023-06-24T07:29:11;8.50;;;4.10;;
3189;SDS011;1606;51.946;10.558;2023-06-24T07:31:41;10.53;;;5.20;;
3189;SDS011;1606;51.946;10.558;2023-06-24T07:34:09;9.87;;;4.20;;
3189;SDS011;1606;51.946;10.558;2023-06-24T07:36:37;10.00;;;4.67;;
3189;SDS011;1606;51.946;10.558;2023-06-24T07:39:05;8.20;;;4.10;;
3189;SDS011;1606;51.946;10.558;2023-06-24T07:41:33;12.33;;;4.30;;
3189;SDS011;1606;51.946;10.558;2023-06-24T07:44:02;9.10;;;4.07;;
3189;SDS011;1606;51.946;10.558;2023-06-24T07:46:29;8.63;;;3.90;;
3189;SDS011;1606;51.946;10.558;2023-06-24T07:48:59;8.90;;;3.40;;
3189;SDS011;1606;51.946;10.558;2023-06-24T07:51:27;10.03;;;3.70;;
3189;SDS011;1606;51.946;10.558;2023-06-24T07:53:55;7.17;;;3.30;;
3189;SDS011;1606;51.946;10.558;2023-06-24T07:56:23;8.87;;;3.10;;
3189;SDS011;1606;51.946;10.558;2023-06-24T07:58:50;11.30;;;3.93;;
3189;SDS011;1606;51.946;10.558;2023-06-24T08:01:18;8.70;;;4.00;;
3189;SDS011;1606;51.946;10.558;2023-06-24T08:03:46;8.70;;;3.40;;
3189;SDS011;1606;51.946;10.558;2023-06-24T08:06:15;9.57;;;3.67;;
3189;SDS011;1606;51.946;10.558;2023-06-24T08:08:43;15.90;;;3.30;;
3189;SDS011;1606;51.946;10.558;2023-06-24T08:11:12;9.40;;;4.13;;
3189;SDS011;1606;51.946;10.558;2023-06-24T08:13:40;7.90;;;3.60;;
3189;SDS011;1606;51.946;10.558;2023-06-24T08:16:08;7.20;;;3.10;;
3189;SDS011;1606;51.946;10.558;2023-06-24T08:18:36;8.30;;;3.27;;
3189;SDS011;1606;51.946;10.558;2023-06-24T08:21:05;7.47;;;3.80;;
3189;SDS011;1606;51.946;10.558;2023-06-24T08:23:34;9.03;;;3.40;;
3189;SDS011;1606;51.946;10.558;2023-06-24T08:26:02;7.83;;;3.03;;
3189;SDS011;1606;51.946;10.558;2023-06-24T08:28:42;7.20;;;2.60;;
3189;SDS011;1606;51.946;10.558;2023-06-24T08:31:10;7.47;;;3.07;;
3189;SDS011;1606;51.946;10.558;2023-06-24T08:33:38;8.23;;;3.30;;
3189;SDS011;1606;51.946;10.558;2023-06-24T08:36:06;7.83;;;3.30;;
3189;SDS011;1606;51.946;10.558;2023-06-24T08:38:35;7.90;;;2.87;;
3189;SDS011;1606;51.946;10.558;2023-06-24T08:41:03;6.30;;;2.47;;
3189;SDS011;1606;51.946;10.558;2023-06-24T08:43:31;7.40;;;3.33;;
3189;SDS011;1606;51.946;10.558;2023-06-24T08:45:59;8.87;;;3.93;;
3189;SDS011;1606;51.946;10.558;2023-06-24T08:48:27;7.10;;;2.77;;
3189;SDS011;1606;51.946;10.558;2023-06-24T08:50:58;7.60;;;2.70;;
3189;SDS011;1606;51.946;10.558;2023-06-24T08:53:27;7.90;;;2.93;;
3189;SDS011;1606;51.946;10.558;2023-06-24T08:55:57;7.80;;;2.50;;
3189;SDS011;1606;51.946;10.558;2023-06-24T08:58:25;7.50;;;3.07;;
3189;SDS011;1606;51.946;10.558;2023-06-24T09:00:53;6.67;;;2.23;;
3189;SDS011;1606;51.946;10.558;2023-06-24T09:03:22;6.70;;;2.90;;
3189;SDS011;1606;51.946;10.558;2023-06-24T09:05:50;6.60;;;2.77;;
3189;SDS011;1606;51.946;10.558;2023-06-24T09:08:17;7.20;;;3.10;;
3189;SDS011;1606;51.946;10.558;2023-06-24T09:10:52;6.20;;;2.40;;
3189;SDS011;1606;51.946;10.558;2023-06-24T09:13:22;6.70;;;2.47;;
3189;SDS011;1606;51.946;10.558;2023-06-24T09:16:04;7.40;;;2.90;;
3189;SDS011;1606;51.946;10.558;2023-06-24T09:18:38;10.43;;;2.77;;
3189;SDS011;1606;51.946;10.558;2023-06-24T09:21:07;7.70;;;2.80;;
3189;SDS011;1606;51.946;10.558;2023-06-24T09:23:35;6.87;;;3.10;;
3189;SDS011;1606;51.946;10.558;2023-06-24T09:26:05;7.43;;;2.70;;
3189;SDS011;1606;51.946;10.558;2023-06-24T09:28:39;6.40;;;2.70;;
3189;SDS011;1606;51.946;10.558;2023-06-24T09:31:07;8.20;;;3.40;;
3189;SDS011;1606;51.946;10.558;2023-06-24T09:33:39;8.23;;;2.83;;
3189;SDS011;1606;51.946;10.558;2023-06-24T09:36:07;7.03;;;2.37;;
3189;SDS011;1606;51.946;10.558;2023-06-24T09:38:40;7.37;;;2.60;;
3189;SDS011;1606;51.946;10.558;2023-06-24T09:41:10;6.23;;;2.13;;
3189;SDS011;1606;51.946;10.558;2023-06-24T09:43:41;7.40;;;2.80;;
3189;SDS011;1606;51.946;10.558;2023-06-24T09:46:11;6.73;;;2.57;;
3189;SDS011;1606;51.946;10.558;2023-06-24T09:48:39;7.33;;;2.80;;
3189;SDS011;1606;51.946;10.558;2023-06-24T09:51:06;5.80;;;1.90;;
3189;SDS011;1606;51.946;10.558;2023-06-24T09:53:35;7.03;;;2.50;;
3189;SDS011;1606;51.946;10.558;2023-06-24T09:56:04;6.53;;;2.10;;
3189;SDS011;1606;51.946;10.558;2023-06-24T09:58:35;7.03;;;2.60;;
3189;SDS011;1606;51.946;10.558;2023-06-24T10:01:05;7.33;;;3.60;;
3189;SDS011;1606;51.946;10.558;2023-06-24T10:03:34;8.40;;;3.07;;
3189;SDS011;1606;51.946;10.558;2023-06-24T10:06:04;6.83;;;3.10;;
3189;SDS011;1606;51.946;10.558;2023-06-24T10:08:32;6.83;;;2.47;;
3189;SDS011;1606;51.946;10.558;2023-06-24T10:11:01;8.63;;;3.20;;
3189;SDS011;1606;51.946;10.558;2023-06-24T10:13:31;7.27;;;3.50;;
3189;SDS011;1606;51.946;10.558;2023-06-24T10:15:59;8.53;;;2.70;;
3189;SDS011;1606;51.946;10.558;2023-06-24T10:18:35;6.70;;;2.80;;
3189;SDS011;1606;51.946;10.558;2023-06-24T10:21:05;7.50;;;3.10;;
3189;SDS011;1606;51.946;10.558;2023-06-24T10:23:38;9.77;;;3.37;;
3189;SDS011;1606;51.946;10.558;2023-06-24T10:26:08;7.47;;;3.43;;
3189;SDS011;1606;51.946;10.558;2023-06-24T10:31:53;7.43;;;3.13;;
3189;SDS011;1606;51.946;10.558;2023-06-24T10:34:30;8.07;;;4.10;;
3189;SDS011;1606;51.946;10.558;2023-06-24T10:36:59;7.27;;;3.23;;
3189;SDS011;1606;51.946;10.558;2023-06-24T10:39:38;8.07;;;3.30;;
3189;SDS011;1606;51.946;10.558;2023-06-24T10:44:55;7.50;;;3.40;;
3189;SDS011;1606;51.946;10.558;2023-06-24T10:47:25;9.30;;;4.13;;
3189;SDS011;1606;51.946;10.558;2023-06-24T10:49:55;7.30;;;3.10;;
3189;SDS011;1606;51.946;10.558;2023-06-24T10:52:23;8.07;;;3.53;;
3189;SDS011;1606;51.946;10.558;2023-06-24T10:54:52;8.97;;;3.93;;
3189;SDS011;1606;51.946;10.558;2023-06-24T10:57:20;9.13;;;3.87;;
3189;SDS011;1606;51.946;10.558;2023-06-24T10:59:50;8.50;;;3.97;;
3189;SDS011;1606;51.946;10.558;2023-06-24T11:02:20;8.20;;;3.30;;
3189;SDS011;1606;51.946;10.558;2023-06-24T11:04:49;8.73;;;4.00;;
3189;SDS011;1606;51.946;10.558;2023-06-24T11:07:19;9.63;;;3.80;;
3189;SDS011;1606;51.946;10.558;2023-06-24T11:09:48;7.93;;;3.90;;
3189;SDS011;1606;51.946;10.558;2023-06-24T11:12:17;7.40;;;3.57;;
3189;SDS011;1606;51.946;10.558;2023-06-24T11:14:45;7.17;;;3.53;;
3189;SDS011;1606;51.946;10.558;2023-06-24T11:17:13;8.20;;;3.43;;
3189;SDS011;1606;51.946;10.558;2023-06-24T11:19:41;7.87;;;4.10;;
3189;SDS011;1606;51.946;10.558;2023-06-24T11:22:10;7.50;;;3.73;;
3189;SDS011;1606;51.946;10.558;2023-06-24T11:24:39;8.70;;;4.07;;
3189;SDS011;1606;51.946;10.558;2023-06-24T11:27:07;8.03;;;3.17;;
3189;SDS011;1606;51.946;10.558;2023-06-24T11:29:35;8.77;;;4.20;;
3189;SDS011;1606;51.946;10.558;2023-06-24T11:32:06;6.97;;;3.30;;
3189;SDS011;1606;51.946;10.558;2023-06-24T11:34:35;7.40;;;3.93;;
3189;SDS011;1606;51.946;10.558;2023-06-24T11:37:10;10.30;;;4.73;;
3189;SDS011;1606;51.946;10.558;2023-06-24T11:39:40;9.00;;;4.03;;
3189;SDS011;1606;51.946;10.558;2023-06-24T11:42:09;7.80;;;3.60;;
3189;SDS011;1606;51.946;10.558;2023-06-24T11:44:43;8.80;;;3.77;;
3189;SDS011;1606;51.946;10.558;2023-06-24T11:47:11;9.10;;;3.83;;
3189;SDS011;1606;51.946;10.558;2023-06-24T11:49:48;7.67;;;4.13;;
3189;SDS011;1606;51.946;10.558;2023-06-24T11:52:17;7.47;;;3.53;;
3189;SDS011;1606;51.946;10.558;2023-06-24T11:54:46;11.83;;;3.90;;
3189;SDS011;1606;51.946;10.558;2023-06-24T11:57:17;7.70;;;4.00;;
3189;SDS011;1606;51.946;10.558;2023-06-24T11:59:45;8.00;;;3.90;;
3189;SDS011;1606;51.946;10.558;2023-06-24T12:02:18;7.53;;;3.73;;
3189;SDS011;1606;51.946;10.558;2023-06-24T12:04:47;9.10;;;3.53;;
3189;SDS011;1606;51.946;10.558;2023-06-24T12:07:15;8.67;;;3.90;;
3189;SDS011;1606;51.946;10.558;2023-06-24T12:09:43;8.00;;;4.10;;
3189;SDS011;1606;51.946;10.558;2023-06-24T12:12:13;8.90;;;4.30;;
3189;SDS011;1606;51.946;10.558;2023-06-24T12:14:41;8.27;;;4.30;;
3189;SDS011;1606;51.946;10.558;2023-06-24T12:17:10;7.60;;;3.67;;
3189;SDS011;1606;51.946;10.558;2023-06-24T12:19:38;7.93;;;4.03;;
3189;SDS011;1606;51.946;10.558;2023-06-24T12:22:06;8.67;;;3.77;;
3189;SDS011;1606;51.946;10.558;2023-06-24T12:24:34;7.20;;;3.70;;
3189;SDS011;1606;51.946;10.558;2023-06-24T12:27:01;8.67;;;3.90;;
3189;SDS011;1606;51.946;10.558;2023-06-24T12:29:32;7.50;;;3.80;;
3189;SDS011;1606;51.946;10.558;2023-06-24T12:32:03;7.80;;;4.00;;
3189;SDS011;1606;51.946;10.558;2023-06-24T12:34:31;8.40;;;3.60;;
3189;SDS011;1606;51.946;10.558;2023-06-24T12:36:59;8.13;;;3.93;;
3189;SDS011;1606;51.946;10.558;2023-06-24T12:39:27;7.87;;;3.70;;
3189;SDS011;1606;51.946;10.558;2023-06-24T12:41:55;7.37;;;3.90;;
3189;SDS011;1606;51.946;10.558;2023-06-24T12:44:23;7.53;;;3.63;;
3189;SDS011;1606;51.946;10.558;2023-06-24T12:46:52;8.80;;;3.83;;
3189;SDS011;1606;51.946;10.558;2023-06-24T12:49:20;8.23;;;3.87;;
3189;SDS011;1606;51.946;10.558;2023-06-24T12:51:47;8.13;;;3.33;;
3189;SDS011;1606;51.946;10.558;2023-06-24T12:54:15;7.10;;;3.43;;
3189;SDS011;1606;51.946;10.558;2023-06-24T12:56:43;8.00;;;3.70;;
3189;SDS011;1606;51.946;10.558;2023-06-24T12:59:11;7.97;;;3.57;;
3189;SDS011;1606;51.946;10.558;2023-06-24T13:01:39;8.43;;;3.63;;
3189;SDS011;1606;51.946;10.558;2023-06-24T13:04:12;7.60;;;3.43;;
3189;SDS011;1606;51.946;10.558;2023-06-24T13:06:40;8.00;;;3.70;;
3189;SDS011;1606;51.946;10.558;2023-06-24T13:09:07;8.40;;;3.57;;
3189;SDS011;1606;51.946;10.558;2023-06-24T13:11:35;9.07;;;3.73;;
3189;SDS011;1606;51.946;10.558;2023-06-24T13:14:03;8.93;;;3.27;;
3189;SDS011;1606;51.946;10.558;2023-06-24T13:16:31;7.50;;;3.40;;
3189;SDS011;1606;51.946;10.558;2023-06-24T13:18:59;7.20;;;3.50;;
3189;SDS011;1606;51.946;10.558;2023-06-24T13:21:29;9.53;;;3.37;;
3189;SDS011;1606;51.946;10.558;2023-06-24T13:23:56;7.97;;;3.83;;
3189;SDS011;1606;51.946;10.558;2023-06-24T13:26:24;7.73;;;3.73;;
3189;SDS011;1606;51.946;10.558;2023-06-24T13:28:52;7.47;;;3.67;;
3189;SDS011;1606;51.946;10.558;2023-06-24T13:31:26;7.57;;;3.70;;
3189;SDS011;1606;51.946;10.558;2023-06-24T13:34:05;7.60;;;3.73;;
3189;SDS011;1606;51.946;10.558;2023-06-24T13:36:34;7.80;;;3.60;;
3189;SDS011;1606;51.946;10.558;2023-06-24T13:39:04;7.73;;;3.47;;
3189;SDS011;1606;51.946;10.558;2023-06-24T13:41:32;7.83;;;3.60;;
3189;SDS011;1606;51.946;10.558;2023-06-24T13:44:00;7.40;;;3.50;;
3189;SDS011;1606;51.946;10.558;2023-06-24T13:46:29;8.30;;;3.67;;
3189;SDS011;1606;51.946;10.558;2023-06-24T13:48:59;9.50;;;4.00;;
3189;SDS011;1606;51.946;10.558;2023-06-24T13:51:31;7.20;;;3.10;;
3189;SDS011;1606;51.946;10.558;2023-06-24T13:54:00;7.70;;;3.53;;
3189;SDS011;1606;51.946;10.558;2023-06-24T13:56:28;7.53;;;3.80;;
3189;SDS011;1606;51.946;10.558;2023-06-24T13:58:56;8.13;;;3.60;;
3189;SDS011;1606;51.946;10.558;2023-06-24T14:01:24;8.43;;;4.00;;
3189;SDS011;1606;51.946;10.558;2023-06-24T14:03:55;10.23;;;4.37;;
3189;SDS011;1606;51.946;10.558;2023-06-24T14:06:23;11.30;;;3.60;;
3189;SDS011;1606;51.946;10.558;2023-06-24T14:08:51;7.50;;;3.70;;
3189;SDS011;1606;51.946;10.558;2023-06-24T14:11:23;8.13;;;4.43;;
3189;SDS011;1606;51.946;10.558;2023-06-24T14:13:51;8.40;;;3.30;;
3189;SDS011;1606;51.946;10.558;2023-06-24T14:16:21;7.80;;;3.13;;
3189;SDS011;1606;51.946;10.558;2023-06-24T14:18:58;9.57;;;3.93;;
3189;SDS011;1606;51.946;10.558;2023-06-24T14:21:26;7.70;;;4.03;;
3189;SDS011;1606;51.946;10.558;2023-06-24T14:23:55;8.90;;;3.70;;
3189;SDS011;1606;51.946;10.558;2023-06-24T14:26:37;7.37;;;3.50;;
3189;SDS011;1606;51.946;10.558;2023-06-24T14:29:06;8.37;;;4.27;;
3189;SDS011;1606;51.946;10.558;2023-06-24T14:31:33;7.50;;;3.43;;
3189;SDS011;1606;51.946;10.558;2023-06-24T14:34:01;8.40;;;4.10;;
3189;SDS011;1606;51.946;10.558;2023-06-24T14:36:29;8.10;;;3.30;;
3189;SDS011;1606;51.946;10.558;2023-06-24T14:38:57;6.90;;;3.53;;
3189;SDS011;1606;51.946;10.558;2023-06-24T14:41:25;8.90;;;3.87;;
3189;SDS011;1606;51.946;10.558;2023-06-24T14:43:54;7.77;;;3.30;;
3189;SDS011;1606;51.946;10.558;2023-06-24T14:46:22;7.87;;;3.30;;
3189;SDS011;1606;51.946;10.558;2023-06-24T14:48:49;8.47;;;3.93;;
3189;SDS011;1606;51.946;10.558;2023-06-24T14:51:17;6.90;;;3.60;;
3189;SDS011;1606;51.946;10.558;2023-06-24T14:53:45;8.30;;;3.80;;
3189;SDS011;1606;51.946;10.558;2023-06-24T14:56:13;7.83;;;3.73;;
3189;SDS011;1606;51.946;10.558;2023-06-24T14:58:41;7.70;;;3.60;;
3189;SDS011;1606;51.946;10.558;2023-06-24T15:01:10;7.83;;;3.97;;
3189;SDS011;1606;51.946;10.558;2023-06-24T15:03:38;14.00;;;3.80;;
3189;SDS011;1606;51.946;10.558;2023-06-24T15:06:06;8.57;;;3.87;;
3189;SDS011;1606;51.946;10.558;2023-06-24T15:08:33;7.80;;;4.03;;
3189;SDS011;1606;51.946;10.558;2023-06-24T15:11:01;9.93;;;4.00;;
3189;SDS011;1606;51.946;10.558;2023-06-24T15:13:29;9.90;;;3.93;;